createdAt,value
2019-02-18T00:02:17.459Z,98185.95
2019-02-18T00:04:45.734Z,98172.69
2019-02-18T00:07:14.939Z,98174.11
2019-02-18T00:09:43.372Z,98173.73
2019-02-18T00:12:11.634Z,98179.18
2019-02-18T00:14:39.898Z,98172.82
2019-02-18T00:17:08.161Z,98175.29
2019-02-18T00:19:36.485Z,98178.11
2019-02-18T00:22:04.707Z,98175.29
2019-02-18T00:24:32.992Z,98176.88
2019-02-18T00:27:01.278Z,98178.45
2019-02-18T00:29:29.533Z,98177.19
2019-02-18T00:31:57.823Z,98169.59
2019-02-18T00:34:26.104Z,98173.48
2019-02-18T00:36:54.551Z,98178.63
2019-02-18T00:39:22.829Z,98182.82
2019-02-18T00:41:51.156Z,98193.03
2019-02-18T00:44:19.430Z,98187.56
2019-02-18T00:46:47.726Z,98186.17
2019-02-18T00:49:16.074Z,98178.05
2019-02-18T00:51:44.367Z,98179.44
2019-02-18T00:54:12.645Z,98184.70
2019-02-18T00:56:40.914Z,98181.65
2019-02-18T00:59:09.192Z,98186.56
2019-02-18T01:01:37.451Z,98181.63
2019-02-18T01:04:05.733Z,98183.23
2019-02-18T01:06:34.006Z,98183.91
2019-02-18T01:09:02.258Z,98181.25
2019-02-18T01:11:30.602Z,98187.61
2019-02-18T01:13:58.867Z,98190.58
2019-02-18T01:16:27.182Z,98187.06
2019-02-18T01:18:55.471Z,98190.20
2019-02-18T01:21:23.731Z,98185.82
2019-02-18T01:23:52.105Z,98188.78
2019-02-18T01:26:20.415Z,98181.19
2019-02-18T01:28:48.762Z,98181.50
2019-02-18T01:31:17.042Z,98176.16
2019-02-18T01:33:45.337Z,98167.66
2019-02-18T01:36:13.647Z,98169.95
2019-02-18T01:38:42.010Z,98163.96
2019-02-18T01:41:10.371Z,98165.38
2019-02-18T01:43:38.811Z,98157.08
2019-02-18T01:46:07.203Z,98159.89
2019-02-18T01:48:35.558Z,98157.38
2019-02-18T01:51:03.870Z,98155.10
2019-02-18T01:53:32.131Z,98155.41
2019-02-18T01:56:00.444Z,98153.83
2019-02-18T01:58:28.720Z,98151.70
2019-02-18T02:00:57.000Z,98147.47
2019-02-18T02:03:25.407Z,98145.19
2019-02-18T02:05:53.639Z,98143.95
2019-02-18T02:08:21.966Z,98137.08
2019-02-18T02:10:50.253Z,98142.53
2019-02-18T02:13:30.035Z,98136.03
2019-02-18T02:15:58.951Z,98130.38
2019-02-18T02:18:27.228Z,98132.14
2019-02-18T02:20:55.625Z,98125.11
2019-02-18T02:23:23.904Z,98129.86
2019-02-18T02:25:52.230Z,98127.54
2019-02-18T02:28:20.500Z,98133.71
2019-02-18T02:30:48.770Z,98124.17
2019-02-18T02:33:17.030Z,98121.16
2019-02-18T02:35:45.333Z,98116.92
2019-02-18T02:38:13.786Z,98112.88
2019-02-18T02:40:42.117Z,98109.67
2019-02-18T02:43:10.457Z,98106.53
2019-02-18T02:45:38.777Z,98108.44
2019-02-18T02:48:07.130Z,98104.18
2019-02-18T02:50:35.432Z,98106.09
2019-02-18T02:53:03.711Z,98106.76
2019-02-18T02:55:32.009Z,98103.55
2019-02-18T02:58:00.304Z,98098.42
2019-02-18T03:00:28.668Z,98100.56
2019-02-18T03:02:56.953Z,98102.46
2019-02-18T03:05:25.247Z,98097.83
2019-02-18T03:07:53.562Z,98096.55
2019-02-18T03:10:21.906Z,98096.47
2019-02-18T03:12:52.933Z,98092.58
2019-02-18T03:15:21.299Z,98094.15
2019-02-18T03:17:51.251Z,98098.52
2019-02-18T03:20:19.548Z,98095.16
2019-02-18T03:22:47.814Z,98098.66
2019-02-18T03:25:27.680Z,98094.06
2019-02-18T03:28:20.214Z,98092.97
2019-02-18T03:30:54.209Z,98094.02
2019-02-18T03:33:28.508Z,98090.98
2019-02-18T03:35:56.794Z,98094.02
2019-02-18T03:38:31.711Z,98090.98
2019-02-18T03:41:02.731Z,98091.55
2019-02-18T03:43:25.170Z,98097.00
2019-02-18T03:45:53.583Z,98092.78
2019-02-18T03:48:21.881Z,98093.45
2019-02-18T03:50:50.227Z,98094.50
2019-02-18T03:53:18.494Z,97518.38
2019-02-18T03:55:46.804Z,98097.47
2019-02-18T03:58:15.207Z,98099.75
2019-02-18T04:00:43.501Z,98099.56
2019-02-18T04:03:11.777Z,98104.45
2019-02-18T04:05:40.081Z,98102.13
2019-02-18T04:08:08.650Z,98106.30
2019-02-18T04:10:36.932Z,98107.99
2019-02-18T04:13:05.285Z,98111.82
2019-02-18T04:15:33.619Z,98111.77
2019-02-18T04:18:02.069Z,98117.27
2019-02-18T04:20:30.338Z,98116.70
2019-02-18T04:22:58.804Z,98121.48
2019-02-18T04:25:27.313Z,98124.46
2019-02-18T04:27:55.615Z,98121.61
2019-02-18T04:30:23.918Z,98119.48
2019-02-18T04:32:52.309Z,98115.27
2019-02-18T04:35:20.895Z,98114.70
2019-02-18T04:37:49.647Z,98108.91
2019-02-18T04:40:18.018Z,98112.94
2019-02-18T04:42:46.445Z,98111.85
2019-02-18T04:45:14.945Z,98118.02
2019-02-18T04:47:43.385Z,98114.83
2019-02-18T04:50:14.928Z,98116.33
2019-02-18T04:52:43.454Z,98110.30
2019-02-18T04:55:12.109Z,98116.45
2019-02-18T04:57:40.483Z,98117.63
2019-02-18T05:00:10.078Z,98113.41
2019-02-18T05:02:38.448Z,98113.60
2019-02-18T05:05:11.117Z,98112.56
2019-02-18T05:07:39.532Z,98122.23
2019-02-18T05:10:11.907Z,98111.48
2019-02-18T05:12:40.272Z,98113.02
2019-02-18T05:15:09.760Z,98107.53
2019-02-18T05:17:38.272Z,98108.23
2019-02-18T05:20:07.883Z,98105.89
2019-02-18T05:22:39.472Z,98108.84
2019-02-18T05:25:09.411Z,98108.64
2019-02-18T05:27:37.860Z,98102.68
2019-02-18T05:30:09.176Z,98100.41
2019-02-18T05:32:40.164Z,98099.74
2019-02-18T05:35:11.221Z,98101.17
2019-02-18T05:37:42.207Z,98099.04
2019-02-18T05:40:10.785Z,98103.52
2019-02-18T05:42:39.363Z,98105.06
2019-02-18T05:45:08.922Z,98104.17
2019-02-18T05:47:39.589Z,98110.89
2019-02-18T05:50:08.761Z,98110.19
2019-02-18T05:52:39.178Z,98110.89
2019-02-18T05:55:07.719Z,98116.67
2019-02-18T05:57:36.061Z,98111.55
2019-02-18T06:00:09.918Z,98110.97
2019-02-18T06:02:38.692Z,98109.66
2019-02-18T06:05:08.089Z,98108.77
2019-02-18T06:07:36.745Z,98108.77
2019-02-18T06:10:08.056Z,98105.27
2019-02-18T06:12:36.555Z,98109.72
2019-02-18T06:15:10.002Z,98107.06
2019-02-18T06:17:38.558Z,98110.36
2019-02-18T06:20:09.139Z,98113.47
2019-02-18T06:22:38.660Z,98118.53
2019-02-18T06:25:07.374Z,98116.41
2019-02-18T06:27:35.836Z,98111.92
2019-02-18T06:30:04.366Z,98110.50
2019-02-18T06:32:32.950Z,98110.70
2019-02-18T06:35:03.123Z,98112.49
2019-02-18T06:37:31.546Z,98120.59
2019-02-18T06:40:00.338Z,98118.33
2019-02-18T06:42:28.750Z,98123.98
2019-02-18T06:44:58.701Z,98125.77
2019-02-18T06:47:26.990Z,98128.57
2019-02-18T06:49:55.455Z,98130.00
2019-02-18T06:52:23.762Z,98133.80
2019-02-18T06:54:52.043Z,98127.45
2019-02-18T06:57:24.376Z,98129.41
2019-02-18T06:59:53.540Z,98137.04
2019-02-18T07:02:23.475Z,98135.36
2019-02-18T07:04:56.670Z,98135.61
2019-02-18T07:07:35.417Z,98125.66
2019-02-18T07:10:05.826Z,98127.14
2019-02-18T07:12:35.759Z,98130.20
2019-02-18T07:15:04.483Z,98132.71
2019-02-18T07:17:33.090Z,98137.33
2019-02-18T07:20:01.520Z,98140.31
2019-02-18T07:22:30.025Z,98140.04
2019-02-18T07:24:58.287Z,98135.50
2019-02-18T07:27:26.637Z,98133.77
2019-02-18T07:29:55.823Z,98133.45
2019-02-18T07:32:24.500Z,98134.88
2019-02-18T07:34:56.252Z,98126.45
2019-02-18T07:37:24.737Z,98124.05
2019-02-18T07:40:01.159Z,98127.98
2019-02-18T07:42:25.755Z,98123.45
2019-02-18T07:44:54.348Z,98123.84
2019-02-18T07:47:22.771Z,98116.66
2019-02-18T07:49:51.163Z,98115.15
2019-02-18T07:52:19.641Z,98114.31
2019-02-18T07:54:48.155Z,98116.17
2019-02-18T07:57:16.568Z,98116.41
2019-02-18T07:59:44.949Z,98111.69
2019-02-18T08:02:13.426Z,98110.17
2019-02-18T08:04:41.853Z,98106.86
2019-02-18T08:07:10.195Z,98104.69
2019-02-18T08:09:38.598Z,98107.20
2019-02-18T08:12:06.951Z,98102.16
2019-02-18T08:14:35.251Z,98106.95
2019-02-18T08:17:03.528Z,98105.39
2019-02-18T08:19:31.809Z,98107.94
2019-02-18T08:22:00.154Z,98102.20
2019-02-18T08:24:28.528Z,98118.45
2019-02-18T08:26:56.897Z,98103.88
2019-02-18T08:29:25.181Z,98104.67
2019-02-18T08:31:53.561Z,98098.02
2019-02-18T08:34:21.829Z,98100.36
2019-02-18T08:36:50.326Z,98104.46
2019-02-18T08:39:18.614Z,98096.59
2019-02-18T08:41:46.982Z,98084.69
2019-02-18T08:44:15.306Z,98074.01
2019-02-18T08:46:43.595Z,98060.14
2019-02-18T08:49:11.876Z,98045.71
2019-02-18T08:51:40.290Z,98041.30
2019-02-18T08:54:08.585Z,98029.99
2019-02-18T08:56:36.863Z,98019.66
2019-02-18T08:59:05.202Z,98009.59
2019-02-18T09:01:33.560Z,98007.95
2019-02-18T09:04:01.886Z,98000.02
2019-02-18T09:06:30.243Z,97988.87
2019-02-18T09:08:58.604Z,97981.25
2019-02-18T09:11:29.980Z,97973.77
2019-02-18T09:13:58.391Z,97982.83
2019-02-18T09:16:26.828Z,98008.77
2019-02-18T09:18:55.227Z,98052.22
2019-02-18T09:21:24.178Z,98053.14
2019-02-18T09:23:54.269Z,98055.80
2019-02-18T09:26:22.878Z,98062.77
2019-02-18T09:28:51.316Z,98055.90
2019-02-18T09:31:21.303Z,98050.86
2019-02-18T09:33:49.921Z,98040.61
2019-02-18T09:36:18.388Z,98047.76
2019-02-18T09:38:49.229Z,98046.37
2019-02-18T09:41:17.778Z,98048.11
2019-02-18T09:43:46.068Z,98038.47
2019-02-18T09:46:14.412Z,98049.44
2019-02-18T09:48:42.741Z,98047.63
2019-02-18T09:51:11.082Z,98035.05
2019-02-18T09:53:39.470Z,98039.47
2019-02-18T09:56:07.865Z,98034.95
2019-02-18T09:58:36.292Z,98037.07
2019-02-18T10:01:04.691Z,98040.33
2019-02-18T10:03:33.042Z,98033.33
2019-02-18T10:06:03.063Z,98036.45
2019-02-18T10:08:31.473Z,98039.95
2019-02-18T10:10:59.748Z,98037.31
2019-02-18T10:13:28.192Z,98035.84
2019-02-18T10:15:56.450Z,98037.92
2019-02-18T10:18:24.789Z,98033.58
2019-02-18T10:20:53.051Z,98024.96
2019-02-18T10:23:21.449Z,98031.23
2019-02-18T10:25:49.858Z,98025.41
2019-02-18T10:28:18.177Z,98024.09
2019-02-18T10:30:46.586Z,98023.66
2019-02-18T10:33:15.011Z,98024.23
2019-02-18T10:35:43.478Z,98019.45
2019-02-18T10:38:11.812Z,97531.05
2019-02-18T10:40:40.205Z,98015.25
2019-02-18T10:43:08.594Z,98005.00
2019-02-18T10:45:36.935Z,97998.88
2019-02-18T10:48:05.289Z,97995.78
2019-02-18T10:50:33.627Z,97995.08
2019-02-18T10:53:02.135Z,97996.67
2019-02-18T10:55:30.644Z,97994.88
2019-02-18T10:57:59.053Z,97989.89
2019-02-18T11:00:28.180Z,97988.08
2019-02-18T11:02:56.438Z,97981.03
2019-02-18T11:05:24.705Z,97973.64
2019-02-18T11:07:52.959Z,97976.92
2019-02-18T11:10:21.238Z,97969.10
2019-02-18T11:12:49.568Z,97794.20
2019-02-18T11:15:17.829Z,97964.59
2019-02-18T11:17:46.365Z,97956.17
2019-02-18T11:20:14.698Z,97956.37
2019-02-18T11:22:42.977Z,97944.06
2019-02-18T11:25:12.631Z,97822.26
2019-02-18T11:27:40.925Z,97942.15
2019-02-18T11:30:12.079Z,97934.31
2019-02-18T11:32:40.340Z,97926.09
2019-02-18T11:35:08.608Z,97926.20
2019-02-18T11:37:36.866Z,97925.38
2019-02-18T11:40:11.476Z,97755.97
2019-02-18T11:42:39.739Z,97913.89
2019-02-18T11:45:10.917Z,97906.27
2019-02-18T11:47:39.176Z,97903.33
2019-02-18T11:50:10.002Z,97904.73
2019-02-18T11:52:38.273Z,97908.60
2019-02-18T11:55:09.475Z,97903.17
2019-02-18T11:57:37.731Z,97898.48
2019-02-18T12:00:08.898Z,97894.80
2019-02-18T12:02:37.164Z,97886.11
2019-02-18T12:05:07.276Z,97881.80
2019-02-18T12:07:35.564Z,97872.59
2019-02-18T12:10:04.176Z,97873.41
2019-02-18T12:12:32.431Z,97872.78
2019-02-18T12:15:00.971Z,97868.20
2019-02-18T12:17:29.236Z,97864.06
2019-02-18T12:19:57.529Z,97861.85
2019-02-18T12:22:25.800Z,97860.36
2019-02-18T12:24:54.053Z,97853.61
2019-02-18T12:27:22.322Z,97847.27
2019-02-18T12:29:50.580Z,97846.05
2019-02-18T12:32:19.138Z,97842.13
2019-02-18T12:34:47.401Z,97840.03
2019-02-18T12:37:15.656Z,97835.81
2019-02-18T12:39:43.921Z,97834.30
2019-02-18T12:42:12.189Z,97829.14
2019-02-18T12:44:40.477Z,97825.03
2019-02-18T12:47:11.125Z,97817.98
2019-02-18T12:49:39.388Z,97822.92
2019-02-18T12:52:07.872Z,97815.09
2019-02-18T12:54:36.283Z,97812.86
2019-02-18T12:57:04.564Z,97804.08
2019-02-18T12:59:33.259Z,97799.64
2019-02-18T13:02:01.817Z,97800.45
2019-02-18T13:04:32.063Z,97796.16
2019-02-18T13:07:00.615Z,97792.66
2019-02-18T13:09:28.936Z,97789.08
2019-02-18T13:11:59.362Z,97782.58
2019-02-18T13:14:27.257Z,97779.58
2019-02-18T13:16:55.576Z,97777.04
2019-02-18T13:19:23.888Z,97776.48
2019-02-18T13:21:52.574Z,97777.44
2019-02-18T13:24:21.180Z,97766.99
2019-02-18T13:26:51.062Z,97765.97
2019-02-18T13:29:19.347Z,97761.91
2019-02-18T13:31:47.602Z,97762.57
2019-02-18T13:34:15.870Z,97759.59
2019-02-18T13:36:44.146Z,97750.79
2019-02-18T13:39:12.411Z,97750.41
2019-02-18T13:41:40.710Z,97748.89
2019-02-18T13:44:08.964Z,97739.14
2019-02-18T13:46:37.229Z,97744.08
2019-02-18T13:49:05.636Z,97740.03
2019-02-18T13:51:33.893Z,97735.91
2019-02-18T13:54:02.181Z,97735.11
2019-02-18T13:56:30.937Z,97729.58
2019-02-18T13:58:59.200Z,97725.86
2019-02-18T14:01:27.466Z,97729.47
2019-02-18T14:03:55.719Z,97731.40
2019-02-18T14:06:23.991Z,97726.00
2019-02-18T14:09:05.724Z,97722.37
2019-02-18T14:11:34.004Z,97725.57
2019-02-18T14:14:02.625Z,97726.41
2019-02-18T14:16:30.978Z,97725.36
2019-02-18T14:18:59.399Z,97732.13
2019-02-18T14:21:27.734Z,97714.24
2019-02-18T14:23:56.031Z,97716.89
2019-02-18T14:26:25.725Z,97718.02
2019-02-18T14:28:54.371Z,97711.16
2019-02-18T14:31:22.657Z,97707.42
2019-02-18T14:33:51.194Z,97701.83
2019-02-18T14:36:19.750Z,97697.25
2019-02-18T14:38:48.337Z,97703.14
2019-02-18T14:41:16.895Z,97702.33
2019-02-18T14:43:45.154Z,97701.61
2019-02-18T14:46:13.435Z,97700.23
2019-02-18T14:49:06.016Z,97695.95
2019-02-18T14:51:34.804Z,97694.78
2019-02-18T14:57:10.983Z,97691.20
2019-02-18T14:59:40.010Z,97689.42
2019-02-18T15:05:02.697Z,97685.14
2019-02-18T15:23:55.082Z,97691.33
2019-02-18T15:26:37.632Z,97683.45
2019-02-18T15:29:25.527Z,97680.58
2019-02-18T15:31:46.730Z,97680.73
2019-02-18T15:34:41.533Z,97677.53
2019-02-18T15:37:16.395Z,97681.83
2019-02-18T15:39:56.544Z,97679.62
2019-02-18T15:42:25.020Z,97676.62
2019-02-18T15:44:57.772Z,97676.59
2019-02-18T15:47:26.175Z,97677.83
2019-02-18T15:50:11.272Z,97671.30
2019-02-18T15:53:08.938Z,97670.13
2019-02-18T15:55:37.510Z,97666.47
2019-02-18T15:58:16.651Z,97659.52
2019-02-18T16:01:34.710Z,97661.84
2019-02-18T16:13:29.755Z,97655.50
2019-02-18T16:19:24.825Z,97656.16
2019-02-18T16:24:59.579Z,97653.22
2019-02-18T16:31:12.201Z,97657.24
2019-02-18T16:33:49.463Z,97658.12
2019-02-18T16:39:26.363Z,97662.20
2019-02-18T16:44:58.869Z,97662.50
2019-02-18T16:50:25.028Z,97662.69
2019-02-18T16:52:53.367Z,97661.87
2019-02-18T16:55:21.723Z,97659.89
2019-02-18T16:57:50.235Z,97672.82
2019-02-18T17:00:28.797Z,97668.93
2019-02-18T17:02:57.177Z,97672.21
2019-02-18T17:05:25.493Z,97667.33
2019-02-18T17:07:53.735Z,97665.79
2019-02-18T17:10:22.022Z,97677.80
2019-02-18T17:12:50.515Z,97674.05
2019-02-18T17:15:18.769Z,97672.92
2019-02-18T17:17:47.061Z,97675.40
2019-02-18T17:20:15.344Z,97673.35
2019-02-18T17:22:43.714Z,97670.18
2019-02-18T17:25:13.459Z,97672.01
2019-02-18T17:27:42.125Z,97672.50
2019-02-18T17:30:16.852Z,97672.02
2019-02-18T17:32:45.197Z,97669.84
2019-02-18T17:35:14.293Z,97669.19
2019-02-18T17:37:42.651Z,97662.16
2019-02-18T17:40:13.119Z,97664.84
2019-02-18T17:42:41.761Z,97666.19
2019-02-18T17:45:17.425Z,97666.50
2019-02-18T17:47:45.745Z,97664.81
2019-02-18T17:50:15.419Z,97670.12
2019-02-18T17:52:43.757Z,97664.66
2019-02-18T17:55:14.521Z,97669.81
2019-02-18T17:57:43.249Z,97671.50
2019-02-18T18:00:17.518Z,97672.33
2019-02-18T18:02:45.943Z,97676.37
2019-02-18T18:05:14.270Z,97675.95
2019-02-18T18:07:42.719Z,97667.52
2019-02-18T18:10:14.225Z,97674.31
2019-02-18T18:12:42.483Z,97676.03
2019-02-18T18:15:19.182Z,97672.34
2019-02-18T18:17:47.447Z,97671.65
2019-02-18T18:20:15.708Z,97672.66
2019-02-18T18:22:43.998Z,97674.09
2019-02-18T18:25:13.678Z,97668.98
2019-02-18T18:27:41.933Z,97669.77
2019-02-18T18:30:12.997Z,97659.45
2019-02-18T18:32:41.315Z,97662.13
2019-02-18T18:35:11.559Z,97658.70
2019-02-18T18:37:39.820Z,97660.13
2019-02-18T18:40:11.629Z,97657.70
2019-02-18T18:42:39.925Z,97661.42
2019-02-18T18:45:10.727Z,97666.78
2019-02-18T18:47:38.989Z,97669.06
2019-02-18T18:50:10.529Z,97322.24
2019-02-18T18:52:38.819Z,97670.09
2019-02-18T18:55:07.081Z,97670.11
2019-02-18T18:57:35.344Z,97669.08
2019-02-18T19:00:05.005Z,97667.59
2019-02-18T19:02:33.335Z,97671.92
2019-02-18T19:05:01.614Z,97673.46
2019-02-18T19:07:29.861Z,97323.16
2019-02-18T19:09:58.307Z,97672.27
2019-02-18T19:12:26.562Z,97665.91
2019-02-18T19:14:54.848Z,97674.61
2019-02-18T19:17:23.117Z,97678.79
2019-02-18T19:19:57.679Z,97680.28
2019-02-18T19:22:21.373Z,97678.04
2019-02-18T19:24:49.917Z,97674.87
2019-02-18T19:27:18.194Z,97681.52
2019-02-18T19:29:46.459Z,97683.20
2019-02-18T19:32:14.715Z,97677.33
2019-02-18T19:34:42.981Z,97680.31
2019-02-18T19:37:11.235Z,97674.14
2019-02-18T19:39:39.793Z,97683.04
2019-02-18T19:42:08.054Z,97686.47
2019-02-18T19:44:36.336Z,97690.83
2019-02-18T19:47:04.597Z,97683.83
2019-02-18T19:49:32.856Z,97684.55
2019-02-18T19:52:01.124Z,97686.11
2019-02-18T19:54:29.384Z,97680.64
2019-02-18T19:56:57.672Z,97679.25
2019-02-18T19:59:25.929Z,97675.17
2019-02-18T20:01:54.189Z,97679.91
2019-02-18T20:04:22.520Z,97691.97
2019-02-18T20:06:50.784Z,97686.42
2019-02-18T20:09:19.081Z,97688.66
2019-02-18T20:11:47.508Z,97689.36
2019-02-18T20:14:15.821Z,97684.86
2019-02-18T20:16:44.081Z,97683.98
2019-02-18T20:19:12.381Z,97681.53
2019-02-18T20:21:43.339Z,97682.11
2019-02-18T20:24:12.638Z,97681.09
2019-02-18T20:26:41.233Z,97679.38
2019-02-18T20:29:12.028Z,97674.30
2019-02-18T20:31:40.397Z,97677.54
2019-02-18T20:34:08.851Z,97679.03
2019-02-18T20:36:37.205Z,97680.69
2019-02-18T20:39:05.790Z,97684.75
2019-02-18T20:41:34.298Z,97677.73
2019-02-18T20:45:00.680Z,97687.48
2019-02-18T20:48:46.822Z,97682.64
2019-02-18T20:51:15.088Z,97690.45
2019-02-18T20:53:43.367Z,97695.06
2019-02-18T20:56:11.636Z,97695.16
2019-02-18T20:58:39.957Z,97694.98
2019-02-18T21:01:08.304Z,97688.95
2019-02-18T21:03:36.603Z,97690.36
2019-02-18T21:06:04.976Z,97678.88
2019-02-18T21:08:33.242Z,97683.89
2019-02-18T21:11:01.540Z,97684.43
2019-02-18T21:13:29.821Z,97686.61
2019-02-18T21:15:58.176Z,97689.49
2019-02-18T21:18:26.504Z,97693.05
2019-02-18T21:20:54.776Z,97690.27
2019-02-18T21:23:23.088Z,97685.39
2019-02-18T21:25:51.379Z,97686.84
2019-02-18T21:28:19.873Z,97678.59
2019-02-18T21:30:48.400Z,97635.84
2019-02-18T21:33:16.741Z,97684.27
2019-02-18T21:35:45.124Z,97690.63
2019-02-18T21:38:13.409Z,97697.89
2019-02-18T21:40:41.761Z,97692.09
2019-02-18T21:43:10.046Z,97685.59
2019-02-18T21:45:38.926Z,97689.14
2019-02-18T21:48:09.002Z,97690.03
2019-02-18T21:50:37.502Z,97693.20
2019-02-18T21:53:05.883Z,97696.41
2019-02-18T21:55:34.250Z,97700.84
2019-02-18T21:58:02.563Z,97703.69
2019-02-18T22:00:32.060Z,97698.97
2019-02-18T22:03:00.513Z,97702.02
2019-02-18T22:05:28.817Z,97695.16
2019-02-18T22:07:57.096Z,97701.35
2019-02-18T22:10:25.457Z,97699.96
2019-02-18T22:12:53.709Z,97695.02
2019-02-18T22:15:21.987Z,97696.77
2019-02-18T22:17:50.309Z,97690.41
2019-02-18T22:20:18.588Z,97689.17
2019-02-18T22:22:46.933Z,97692.72
2019-02-18T22:25:15.223Z,97688.89
2019-02-18T22:27:43.660Z,97684.47
2019-02-18T22:30:15.535Z,97691.61
2019-02-18T22:32:43.806Z,97690.26
2019-02-18T22:35:12.085Z,97679.48
2019-02-18T22:37:40.341Z,97688.52
2019-02-18T22:40:10.031Z,97689.20
2019-02-18T22:42:38.310Z,97695.56
2019-02-18T22:45:08.109Z,97692.06
2019-02-18T22:47:36.404Z,97689.61
2019-02-18T22:50:04.822Z,97691.57
2019-02-18T22:52:33.663Z,97639.47
2019-02-18T22:55:01.947Z,97689.48
2019-02-18T22:57:30.217Z,97684.88
2019-02-18T22:59:58.491Z,97687.23
2019-02-18T23:02:26.893Z,97691.63
2019-02-18T23:04:55.124Z,97693.08
2019-02-18T23:07:23.570Z,97692.02
2019-02-18T23:09:52.101Z,97693.42
2019-02-18T23:12:20.351Z,97690.95
2019-02-18T23:14:50.543Z,97685.66
2019-02-18T23:17:18.639Z,97688.34
2019-02-18T23:19:46.894Z,97686.09
2019-02-18T23:22:15.244Z,97691.75
2019-02-18T23:24:43.538Z,97695.29
2019-02-18T23:27:11.990Z,97690.69
2019-02-18T23:29:40.291Z,97688.05
2019-02-18T23:32:08.556Z,97694.40
2019-02-18T23:34:36.856Z,97699.34
2019-02-18T23:37:05.123Z,97705.69
2019-02-18T23:39:33.387Z,97715.58
2019-02-18T23:42:01.695Z,97717.70
2019-02-18T23:44:30.021Z,97712.93
2019-02-18T23:46:58.296Z,97723.20
2019-02-18T23:49:26.556Z,97713.14
2019-02-18T23:51:54.862Z,97719.86
2019-02-18T23:54:23.166Z,97713.34
2019-02-18T23:56:51.581Z,96838.87
2019-02-18T23:59:19.850Z,97710.50
